Time;durP1;ratioP1;P1;durP2;ratioP2;P2;SDS_P1;SDS_P2;PMS_P1;PMS_P2;Temp;Humidity;BMP_temperature;BMP_pressure;BME280_temperature;BME280_humidity;BME280_pressure;Samples;Min_cycle;Max_cycle;Signal;HPM_P1;HPM_P2
2023/05/04 00:02:11;;;;;;;0.70;0.65;;;6.20;99.90;;;;;;5111136;28;20040;-66
2023/05/04 00:04:36;;;;;;;8.25;1.40;;;6.20;99.90;;;;;;5110515;28;20040;-65
2023/05/04 00:07:02;;;;;;;2.10;1.10;;;6.20;99.90;;;;;;5111325;28;20040;-65
2023/05/04 00:09:28;;;;;;;3.40;1.73;;;6.20;99.90;;;;;;5094101;28;20680;-66
2023/05/04 00:11:54;;;;;;;2.00;0.93;;;6.20;99.90;;;;;;5110304;28;20136;-66
2023/05/04 00:14:19;;;;;;;2.53;1.17;;;6.20;99.90;;;;;;5093763;28;20520;-66
2023/05/04 00:16:45;;;;;;;5.50;1.77;;;6.10;99.90;;;;;;5110847;28;20047;-64
2023/05/04 00:19:11;;;;;;;1.80;0.63;;;6.10;99.90;;;;;;5111425;28;20046;-66
2023/05/04 00:21:37;;;;;;;1.30;0.75;;;6.10;99.90;;;;;;5112316;28;20043;-66
2023/05/04 00:24:03;;;;;;;2.28;0.80;;;6.10;99.90;;;;;;5112156;28;20485;-65
2023/05/04 00:26:28;;;;;;;3.22;1.55;;;6.10;99.90;;;;;;5110266;28;20051;-65
2023/05/04 00:28:54;;;;;;;1.85;0.90;;;6.10;99.90;;;;;;5110578;28;20608;-66
2023/05/04 00:31:20;;;;;;;2.55;0.98;;;6.10;99.90;;;;;;5110057;28;20512;-66
2023/05/04 00:33:46;;;;;;;1.60;0.85;;;6.10;99.90;;;;;;5110556;28;20050;-65
2023/05/04 00:36:12;;;;;;;2.92;0.82;;;6.10;99.90;;;;;;5110538;28;20035;-66
2023/05/04 00:38:53;;;;;;;1.42;1.17;;;6.10;99.90;;;;;;5110436;28;20043;-66
2023/05/04 00:41:20;;;;;;;1.92;0.90;;;6.10;99.90;;;;;;5109596;28;20097;-65
2023/05/04 00:43:47;;;;;;;3.03;1.33;;;6.10;99.90;;;;;;5110084;28;20521;-65
2023/05/04 00:46:13;;;;;;;2.58;1.45;;;6.10;99.90;;;;;;5110303;28;20044;-66
2023/05/04 00:48:40;;;;;;;1.75;1.10;;;6.10;99.90;;;;;;5111319;28;20078;-65
2023/05/04 00:51:07;;;;;;;2.65;1.33;;;6.10;99.90;;;;;;5111513;28;20070;-66
2023/05/04 00:53:35;;;;;;;2.05;0.77;;;6.10;99.90;;;;;;5110908;28;20501;-66
2023/05/04 00:56:02;;;;;;;2.78;0.75;;;6.10;99.90;;;;;;5110297;28;20108;-66
2023/05/04 00:58:28;;;;;;;2.25;0.70;;;6.10;99.90;;;;;;5110232;28;20472;-66
2023/05/04 01:00:54;;;;;;;2.80;0.95;;;6.00;99.90;;;;;;5092440;28;20122;-66
2023/05/04 01:03:20;;;;;;;2.35;0.85;;;6.00;99.90;;;;;;5093115;28;20427;-66
2023/05/04 01:05:59;;;;;;;3.13;1.10;;;6.00;99.90;;;;;;5111346;28;20027;-66
2023/05/04 01:08:35;;;;;;;2.50;1.08;;;6.00;99.90;;;;;;5109434;28;20062;-66
2023/05/04 01:11:10;;;;;;;1.65;0.95;;;6.00;99.90;;;;;;5110135;28;20067;-66
2023/05/04 01:13:37;;;;;;;2.08;0.93;;;5.90;99.90;;;;;;5109602;28;20056;-66
2023/05/04 01:16:04;;;;;;;2.60;1.55;;;5.90;99.90;;;;;;5108933;28;20058;-66
2023/05/04 01:18:30;;;;;;;1.83;0.73;;;5.90;99.90;;;;;;5109569;28;20043;-66
2023/05/04 01:20:56;;;;;;;7.15;1.33;;;5.90;99.90;;;;;;5110055;28;20043;-66
2023/05/04 01:23:22;;;;;;;3.83;1.30;;;5.90;99.90;;;;;;5108995;28;20493;-66
2023/05/04 01:25:57;;;;;;;4.13;1.00;;;5.90;99.90;;;;;;5092617;28;20047;-66
2023/05/04 01:28:37;;;;;;;6.93;1.38;;;5.90;99.90;;;;;;5111087;28;20079;-64
2023/05/04 01:31:06;;;;;;;1.42;0.88;;;5.90;99.90;;;;;;5092484;28;20039;-64
2023/05/04 01:33:32;;;;;;;1.33;0.77;;;5.90;99.90;;;;;;5110967;28;20035;-65
2023/05/04 01:35:58;;;;;;;1.30;0.73;;;5.90;99.90;;;;;;5108874;28;20054;-65
2023/05/04 01:38:24;;;;;;;2.15;0.90;;;5.90;99.90;;;;;;5109535;28;20039;-65
2023/05/04 01:40:50;;;;;;;1.90;1.15;;;5.90;99.90;;;;;;5109278;28;20402;-65
2023/05/04 01:43:16;;;;;;;2.00;1.27;;;5.90;99.90;;;;;;5109971;28;20118;-65
2023/05/04 01:45:41;;;;;;;2.30;1.05;;;5.90;99.90;;;;;;5109023;28;20114;-65
2023/05/04 01:48:07;;;;;;;2.75;1.00;;;5.90;99.90;;;;;;5109062;28;20074;-65
2023/05/04 01:50:33;;;;;;;2.22;1.15;;;5.90;99.90;;;;;;5108883;28;20123;-65
2023/05/04 01:52:59;;;;;;;2.13;0.88;;;5.90;99.90;;;;;;5109616;28;20052;-65
2023/05/04 01:55:24;;;;;;;2.40;0.93;;;5.90;99.90;;;;;;5109260;28;20079;-65
2023/05/04 01:57:50;;;;;;;1.10;0.70;;;5.90;99.90;;;;;;5110058;28;20046;-65
2023/05/04 02:00:16;;;;;;;1.27;0.80;;;6.00;99.90;;;;;;5109015;28;20439;-66
2023/05/04 02:02:42;;;;;;;1.60;0.98;;;5.90;99.90;;;;;;5109108;28;20039;-65
2023/05/04 02:05:08;;;;;;;2.72;0.93;;;5.90;99.90;;;;;;5091908;28;20093;-65
2023/05/04 02:07:34;;;;;;;3.28;1.30;;;5.90;99.90;;;;;;5110477;28;20032;-66
2023/05/04 02:10:00;;;;;;;2.70;1.52;;;5.90;99.90;;;;;;5110330;28;20047;-66
2023/05/04 02:12:25;;;;;;;1.42;0.88;;;5.90;99.90;;;;;;5109927;28;20035;-65
2023/05/04 02:14:51;;;;;;;2.10;0.98;;;6.00;99.90;;;;;;5110245;28;20059;-65
2023/05/04 02:17:17;;;;;;;10.20;1.17;;;6.00;99.90;;;;;;5108892;28;20081;-64
2023/05/04 02:19:42;;;;;;;1.13;0.80;;;6.00;99.90;;;;;;5108319;28;20104;-65
2023/05/04 02:22:08;;;;;;;0.43;0.40;;;6.00;99.90;;;;;;5110249;28;20032;-63
2023/05/04 02:24:34;;;;;;;1.73;1.33;;;6.00;99.90;;;;;;5109639;28;20035;-65
2023/05/04 02:27:00;;;;;;;2.13;1.10;;;6.00;99.90;;;;;;5109229;28;20111;-65
2023/05/04 02:29:26;;;;;;;1.27;0.88;;;6.00;99.90;;;;;;5108939;28;20047;-65
2023/05/04 02:31:52;;;;;;;4.15;1.60;;;6.00;99.90;;;;;;5109676;28;20576;-66
2023/05/04 02:34:18;;;;;;;2.13;1.50;;;6.00;99.90;;;;;;5108828;28;20042;-66
2023/05/04 02:36:43;;;;;;;1.70;1.10;;;6.00;99.90;;;;;;5109051;28;20036;-65
2023/05/04 02:39:09;;;;;;;3.20;0.90;;;6.00;99.90;;;;;;5109345;28;20501;-65
2023/05/04 02:41:35;;;;;;;1.42;0.90;;;6.00;99.90;;;;;;5108638;28;20040;-65
2023/05/04 02:44:00;;;;;;;1.42;1.10;;;5.90;99.90;;;;;;5108916;28;20046;-65
2023/05/04 02:46:26;;;;;;;1.70;1.05;;;6.00;99.90;;;;;;5108161;28;20036;-65
2023/05/04 02:48:52;;;;;;;3.00;1.77;;;6.00;99.90;;;;;;5109775;28;20043;-66
2023/05/04 02:51:18;;;;;;;1.88;0.73;;;6.00;99.90;;;;;;5091740;28;20070;-66
2023/05/04 02:53:43;;;;;;;7.00;1.77;;;6.00;99.90;;;;;;5108013;28;20378;-65
2023/05/04 02:56:09;;;;;;;1.40;0.77;;;6.00;99.90;;;;;;5111126;28;20043;-66
2023/05/04 02:58:35;;;;;;;1.08;0.68;;;6.00;99.90;;;;;;5112369;28;20143;-65
2023/05/04 03:01:01;;;;;;;1.58;1.25;;;6.00;99.90;;;;;;5113228;28;20027;-66
2023/05/04 03:03:26;;;;;;;1.23;0.70;;;6.00;99.90;;;;;;5112385;28;20027;-65
2023/05/04 03:05:52;;;;;;;3.00;1.25;;;6.00;99.90;;;;;;5112229;28;20503;-66
2023/05/04 03:08:18;;;;;;;1.77;0.90;;;6.00;99.90;;;;;;5111457;28;20043;-66
2023/05/04 03:10:44;;;;;;;2.85;1.58;;;6.00;99.90;;;;;;5112060;28;20044;-66
2023/05/04 03:13:09;;;;;;;1.05;0.55;;;6.00;99.90;;;;;;5112004;28;20132;-66
2023/05/04 03:15:35;;;;;;;1.42;0.90;;;6.00;99.90;;;;;;5111692;28;20432;-66
2023/05/04 03:18:01;;;;;;;2.05;0.93;;;6.00;99.90;;;;;;5112017;28;20066;-66
2023/05/04 03:20:27;;;;;;;1.17;0.70;;;6.00;99.90;;;;;;5094769;28;20047;-66
2023/05/04 03:22:53;;;;;;;2.13;1.02;;;6.00;99.90;;;;;;5111509;28;20071;-66
2023/05/04 03:25:19;;;;;;;2.35;1.20;;;6.00;99.90;;;;;;5111960;28;20083;-65
2023/05/04 03:27:44;;;;;;;2.22;1.10;;;5.90;99.90;;;;;;5094444;28;20054;-63
2023/05/04 03:30:13;;;;;;;1.80;1.17;;;6.00;99.90;;;;;;5111698;28;20481;-66
2023/05/04 03:32:39;;;;;;;2.90;1.38;;;5.90;99.90;;;;;;5111709;28;20039;-65
2023/05/04 03:35:05;;;;;;;6.38;1.23;;;5.90;99.90;;;;;;5093986;28;20466;-66
2023/05/04 03:37:31;;;;;;;3.47;1.13;;;5.90;99.90;;;;;;5111741;28;20053;-66
2023/05/04 03:39:56;;;;;;;3.42;1.23;;;5.90;99.90;;;;;;5113047;28;20668;-64
2023/05/04 03:42:22;;;;;;;3.47;1.55;;;5.90;99.90;;;;;;5093884;28;20542;-66
2023/05/04 03:44:48;;;;;;;4.28;0.80;;;5.90;99.90;;;;;;5111443;28;20043;-66
2023/05/04 03:47:13;;;;;;;1.67;1.20;;;5.90;99.90;;;;;;5111455;28;20120;-65
2023/05/04 03:49:39;;;;;;;3.35;1.40;;;5.90;99.90;;;;;;5111936;28;20049;-66
2023/05/04 03:52:05;;;;;;;4.50;1.38;;;5.90;99.90;;;;;;5111423;28;20049;-65
2023/05/04 03:54:31;;;;;;;2.13;1.27;;;5.90;99.90;;;;;;5112626;28;20362;-66
2023/05/04 03:56:57;;;;;;;2.28;1.02;;;5.90;99.90;;;;;;5110692;28;20192;-66
2023/05/04 03:59:22;;;;;;;1.25;0.80;;;5.90;99.90;;;;;;5094081;28;20044;-65
2023/05/04 04:01:48;;;;;;;3.40;1.00;;;5.90;99.90;;;;;;5111362;28;20043;-66
2023/05/04 04:04:14;;;;;;;2.67;1.27;;;5.90;99.90;;;;;;5110480;28;20032;-66
2023/05/04 04:06:40;;;;;;;1.52;0.90;;;5.90;99.90;;;;;;5109779;28;20124;-65
2023/05/04 04:09:06;;;;;;;1.33;0.80;;;5.90;99.90;;;;;;5110986;28;20036;-66
2023/05/04 04:11:32;;;;;;;3.50;1.58;;;5.90;99.90;;;;;;5110363;28;20043;-65
2023/05/04 04:13:57;;;;;;;1.88;0.95;;;5.90;99.90;;;;;;5112002;28;20083;-66
2023/05/04 04:16:23;;;;;;;1.75;1.15;;;5.90;99.90;;;;;;5112379;28;20081;-66
2023/05/04 04:18:49;;;;;;;1.08;0.70;;;5.90;99.90;;;;;;5110197;28;20048;-65
2023/05/04 04:21:15;;;;;;;1.30;1.20;;;5.90;99.90;;;;;;5110621;28;20040;-65
2023/05/04 04:23:41;;;;;;;5.57;1.27;;;5.90;99.90;;;;;;5109873;28;20065;-65
2023/05/04 04:26:06;;;;;;;3.60;1.00;;;5.90;99.90;;;;;;5112043;28;20039;-66
2023/05/04 04:28:32;;;;;;;4.50;1.30;;;5.90;99.90;;;;;;5110825;28;20032;-66
2023/05/04 04:30:58;;;;;;;1.90;1.13;;;5.90;99.90;;;;;;5110246;28;20489;-66
2023/05/04 04:33:24;;;;;;;2.35;1.05;;;5.90;99.90;;;;;;5110414;28;20648;-65
2023/05/04 04:35:50;;;;;;;3.25;1.48;;;5.90;99.90;;;;;;5110788;28;20044;-66
2023/05/04 04:38:16;;;;;;;2.45;1.10;;;6.00;99.90;;;;;;5111097;28;20461;-66
2023/05/04 04:40:42;;;;;;;5.85;1.70;;;6.00;99.90;;;;;;5110300;28;20039;-66
2023/05/04 04:43:08;;;;;;;3.67;1.25;;;6.00;99.90;;;;;;5111754;28;20035;-65
2023/05/04 04:45:34;;;;;;;2.30;1.23;;;6.00;99.90;;;;;;5111062;28;20521;-65
2023/05/04 04:48:00;;;;;;;2.08;1.02;;;6.00;99.90;;;;;;5110518;28;20043;-66
2023/05/04 04:50:27;;;;;;;1.30;0.93;;;6.00;99.90;;;;;;5110530;28;20501;-65
2023/05/04 04:52:53;;;;;;;5.68;1.27;;;6.00;99.90;;;;;;5109678;28;20059;-65
2023/05/04 04:55:19;;;;;;;7.68;1.85;;;6.10;99.90;;;;;;5109995;28;20055;-66
2023/05/04 04:57:45;;;;;;;1.80;1.05;;;6.10;99.90;;;;;;5093242;28;20066;-66
2023/05/04 05:00:14;;;;;;;4.90;1.05;;;6.20;99.90;;;;;;5110722;28;20040;-65
2023/05/04 05:02:40;;;;;;;1.58;1.25;;;6.20;99.90;;;;;;5111348;28;20053;-65
2023/05/04 05:05:07;;;;;;;3.20;1.67;;;6.20;99.90;;;;;;5109987;28;20040;-65
2023/05/04 05:07:32;;;;;;;4.82;1.70;;;6.30;99.90;;;;;;5109220;28;20043;-66
2023/05/04 05:09:58;;;;;;;2.08;1.30;;;6.30;99.90;;;;;;5111258;28;20039;-66
2023/05/04 05:12:24;;;;;;;4.10;1.33;;;6.30;99.90;;;;;;5111244;28;20485;-65
2023/05/04 05:14:50;;;;;;;1.92;1.02;;;6.40;99.90;;;;;;5109043;28;20081;-65
2023/05/04 05:17:18;;;;;;;2.33;1.13;;;6.40;99.90;;;;;;5109626;28;20043;-66
2023/05/04 05:19:43;;;;;;;2.50;1.25;;;6.50;99.90;;;;;;5108749;28;20043;-66
2023/05/04 05:22:09;;;;;;;1.90;0.90;;;6.60;99.90;;;;;;5109496;28;20046;-65
2023/05/04 05:24:35;;;;;;;4.57;1.50;;;6.70;99.90;;;;;;5109548;28;20051;-66
2023/05/04 05:27:01;;;;;;;3.83;1.33;;;6.70;99.90;;;;;;5110069;28;20031;-65
2023/05/04 05:29:26;;;;;;;3.63;1.17;;;6.80;99.90;;;;;;5092856;28;20117;-65
2023/05/04 05:31:52;;;;;;;2.67;1.13;;;6.90;99.90;;;;;;5109552;28;20505;-65
2023/05/04 05:34:18;;;;;;;3.78;1.35;;;7.00;99.90;;;;;;5091880;28;20043;-65
2023/05/04 05:36:44;;;;;;;4.18;1.65;;;7.00;99.90;;;;;;5109395;28;20104;-65
2023/05/04 05:39:13;;;;;;;4.63;1.70;;;7.10;99.90;;;;;;5109248;28;20104;-65
2023/05/04 05:41:39;;;;;;;3.90;1.20;;;7.20;99.90;;;;;;5107655;28;20032;-65
2023/05/04 05:44:04;;;;;;;2.92;1.33;;;7.30;99.90;;;;;;5108000;28;20489;-65
2023/05/04 05:46:30;;;;;;;2.33;1.48;;;7.30;99.90;;;;;;5109458;28;20039;-66
2023/05/04 05:48:56;;;;;;;2.75;1.45;;;7.40;99.90;;;;;;5107493;28;20031;-65
2023/05/04 05:51:21;;;;;;;3.45;1.95;;;7.40;99.90;;;;;;5109567;28;20031;-64
2023/05/04 05:53:47;;;;;;;1.65;1.27;;;7.50;99.90;;;;;;5108199;28;20503;-65
2023/05/04 05:56:13;;;;;;;5.13;1.55;;;7.50;99.90;;;;;;5108483;28;20114;-66
2023/05/04 05:58:39;;;;;;;1.60;0.93;;;7.60;99.90;;;;;;5108261;28;20067;-65
2023/05/04 06:01:05;;;;;;;5.65;1.65;;;7.60;99.90;;;;;;5109371;28;20485;-66
2023/05/04 06:03:31;;;;;;;1.50;0.88;;;7.70;99.90;;;;;;5108446;28;20054;-65
2023/05/04 06:05:56;;;;;;;4.80;2.22;;;7.70;99.90;;;;;;5107965;28;20054;-66
2023/05/04 06:08:22;;;;;;;4.32;1.83;;;7.80;99.90;;;;;;5109144;28;20500;-64
2023/05/04 06:10:50;;;;;;;3.42;1.25;;;7.80;99.90;;;;;;5107149;28;20050;-66
2023/05/04 06:13:16;;;;;;;2.25;1.60;;;7.90;99.90;;;;;;5107728;28;20409;-64
2023/05/04 06:15:49;;;;;;;3.90;1.15;;;8.00;99.90;;;;;;5090420;28;20047;-64
2023/05/04 06:18:15;;;;;;;4.43;1.77;;;8.10;99.90;;;;;;5109005;28;20038;-65
2023/05/04 06:20:40;;;;;;;2.08;1.30;;;8.20;99.90;;;;;;5090737;28;20047;-65
2023/05/04 06:23:06;;;;;;;3.75;1.60;;;8.30;99.90;;;;;;5107037;28;20035;-66
2023/05/04 06:25:32;;;;;;;4.15;1.90;;;8.40;99.90;;;;;;5090947;28;20032;-66
2023/05/04 06:27:57;;;;;;;1.85;1.15;;;8.50;99.90;;;;;;5109051;28;20032;-64
2023/05/04 06:30:23;;;;;;;4.38;1.42;;;8.60;99.90;;;;;;5109699;28;20051;-65
2023/05/04 06:32:50;;;;;;;3.08;1.58;;;8.70;99.90;;;;;;5094503;28;20043;-65
2023/05/04 06:35:15;;;;;;;3.70;1.08;;;8.90;99.90;;;;;;5111724;28;20047;-66
2023/05/04 06:37:41;;;;;;;2.97;1.80;;;9.00;99.90;;;;;;5106271;28;20443;-66
2023/05/04 06:40:07;;;;;;;2.70;1.25;;;9.10;99.90;;;;;;5090908;28;20047;-64
2023/05/04 06:42:33;;;;;;;4.43;1.80;;;9.30;99.90;;;;;;5090924;28;20044;-65
2023/05/04 06:44:59;;;;;;;6.03;1.88;;;9.40;99.90;;;;;;5091809;28;20040;-65
2023/05/04 06:47:25;;;;;;;6.20;1.58;;;9.60;99.90;;;;;;5092060;28;20490;-64
2023/05/04 06:49:50;;;;;;;2.83;1.20;;;9.70;99.90;;;;;;5092199;28;20036;-65
2023/05/04 06:52:16;;;;;;;2.45;1.40;;;9.90;99.90;;;;;;5090259;28;20178;-64
2023/05/04 06:54:42;;;;;;;3.55;1.75;;;10.10;99.90;;;;;;5092119;28;20089;-64
2023/05/04 06:57:08;;;;;;;4.00;2.20;;;10.20;99.90;;;;;;5091929;28;20110;-65
2023/05/04 06:59:33;;;;;;;1.92;1.08;;;10.30;99.90;;;;;;5090058;28;20044;-65
2023/05/04 07:01:59;;;;;;;6.80;1.40;;;10.40;99.90;;;;;;5090687;28;20044;-65
2023/05/04 07:04:25;;;;;;;4.47;1.40;;;10.60;99.90;;;;;;5091925;28;20441;-64
2023/05/04 07:06:51;;;;;;;2.47;1.25;;;10.60;99.90;;;;;;5091324;28;20486;-64
2023/05/04 07:09:20;;;;;;;4.35;2.58;;;10.70;99.90;;;;;;5090173;28;20079;-63
2023/05/04 07:11:47;;;;;;;2.40;1.77;;;10.70;99.90;;;;;;5089864;28;20044;-65
2023/05/04 07:14:14;;;;;;;5.25;1.42;;;10.60;99.90;;;;;;5091349;28;20513;-65
2023/05/04 07:16:40;;;;;;;8.77;1.45;;;10.70;99.90;;;;;;5090262;28;20051;-65
2023/05/04 07:19:05;;;;;;;3.00;1.23;;;10.90;99.90;;;;;;5090531;28;20101;-65
2023/05/04 07:21:31;;;;;;;3.00;1.45;;;11.00;99.90;;;;;;5089409;28;20491;-65
2023/05/04 07:23:57;;;;;;;2.17;1.38;;;11.10;99.90;;;;;;5090460;28;20040;-65
2023/05/04 07:26:23;;;;;;;3.78;1.85;;;11.20;99.90;;;;;;5089618;28;20039;-65
2023/05/04 07:28:49;;;;;;;3.92;1.70;;;11.40;99.90;;;;;;5091663;28;20055;-64
2023/05/04 07:31:15;;;;;;;4.72;2.45;;;11.60;99.90;;;;;;5090114;28;20032;-65
2023/05/04 07:33:41;;;;;;;4.65;1.95;;;11.80;99.90;;;;;;5090667;28;20036;-65
2023/05/04 07:36:07;;;;;;;3.00;1.55;;;11.90;99.90;;;;;;5089875;28;20036;-65
2023/05/04 07:38:32;;;;;;;5.13;1.42;;;12.10;99.90;;;;;;5089890;28;20040;-65
2023/05/04 07:40:58;;;;;;;3.13;1.70;;;12.40;99.90;;;;;;5090126;28;20074;-65
2023/05/04 07:43:24;;;;;;;4.90;1.70;;;12.60;99.90;;;;;;5089692;28;20075;-64
2023/05/04 07:45:52;;;;;;;2.97;1.98;;;12.80;99.90;;;;;;5090338;28;20036;-65
2023/05/04 07:48:19;;;;;;;3.55;1.42;;;13.00;99.90;;;;;;5089211;28;20493;-66
2023/05/04 07:50:45;;;;;;;2.33;1.52;;;13.20;99.90;;;;;;5090223;28;20048;-65
2023/05/04 07:53:11;;;;;;;3.53;1.63;;;13.30;99.90;;;;;;5089786;28;20122;-64
2023/05/04 07:55:37;;;;;;;4.65;1.83;;;13.40;99.90;;;;;;5090332;28;20044;-63
2023/05/04 07:58:03;;;;;;;3.25;1.77;;;13.60;99.90;;;;;;5091299;28;20278;-64
2023/05/04 08:00:29;;;;;;;2.97;1.52;;;13.70;99.90;;;;;;5090703;28;20460;-65
2023/05/04 08:02:56;;;;;;;2.42;1.45;;;13.80;99.90;;;;;;5090287;28;20119;-65
2023/05/04 08:05:22;;;;;;;3.33;1.63;;;14.00;99.90;;;;;;5090560;28;20490;-64
2023/05/04 08:07:47;;;;;;;9.60;1.60;;;14.10;99.90;;;;;;5089011;28;20066;-65
2023/05/04 08:10:13;;;;;;;5.72;2.38;;;14.20;99.90;;;;;;5090788;28;20552;-65
2023/05/04 08:12:39;;;;;;;2.40;1.30;;;14.20;99.90;;;;;;5089427;28;20478;-65
2023/05/04 08:15:06;;;;;;;3.03;1.35;;;14.40;99.90;;;;;;5088497;28;20079;-65
2023/05/04 08:17:33;;;;;;;3.05;1.65;;;14.60;99.90;;;;;;5089308;28;20076;-65
2023/05/04 08:20:00;;;;;;;3.83;1.02;;;14.90;99.90;;;;;;5089263;28;20055;-63
2023/05/04 08:22:26;;;;;;;4.85;1.75;;;15.10;99.90;;;;;;5090079;28;20036;-64
2023/05/04 08:24:52;;;;;;;3.17;1.50;;;15.20;99.90;;;;;;5089173;28;20486;-64
2023/05/04 08:27:17;;;;;;;2.63;1.77;;;15.20;99.90;;;;;;5089052;28;20101;-65
2023/05/04 08:29:43;;;;;;;2.67;1.48;;;15.20;99.90;;;;;;5089853;28;20040;-65
2023/05/04 08:32:09;;;;;;;2.60;1.55;;;15.50;99.90;;;;;;5089081;28;20044;-65
2023/05/04 08:34:35;;;;;;;4.18;1.63;;;15.80;99.90;;;;;;5071938;28;20043;-65
2023/05/04 08:37:01;;;;;;;2.90;1.30;;;16.20;99.90;;;;;;5088116;28;20044;-64
2023/05/04 08:39:27;;;;;;;3.00;1.17;;;16.40;99.90;;;;;;5088846;28;20050;-64
2023/05/04 08:41:52;;;;;;;2.63;1.40;;;16.40;99.90;;;;;;5088588;28;20502;-64
2023/05/04 08:44:18;;;;;;;2.88;1.45;;;16.40;99.90;;;;;;5088386;28;20040;-65
2023/05/04 08:46:51;;;;;;;4.55;1.45;;;16.50;99.90;;;;;;5089270;28;20481;-65
2023/05/04 08:49:18;;;;;;;3.78;1.52;;;16.50;99.90;;;;;;5088777;28;20101;-65
2023/05/04 08:51:46;;;;;;;1.85;1.02;;;16.70;99.90;;;;;;5089417;28;20082;-64
2023/05/04 08:54:12;;;;;;;3.63;1.52;;;16.90;99.90;;;;;;5088419;28;20044;-65
2023/05/04 08:56:39;;;;;;;2.75;1.27;;;17.10;99.90;;;;;;5088161;28;20044;-66
2023/05/04 08:59:07;;;;;;;3.17;1.50;;;17.30;99.90;;;;;;5088279;28;20226;-64
2023/05/04 09:01:36;;;;;;;3.97;1.60;;;17.50;99.90;;;;;;5088285;28;20498;-64
2023/05/04 09:04:03;;;;;;;2.92;1.25;;;17.70;99.90;;;;;;5087739;28;20082;-64
2023/05/04 09:06:30;;;;;;;2.35;1.20;;;18.00;99.90;;;;;;5071311;28;20036;-65
2023/05/04 09:08:56;;;;;;;3.58;1.30;;;18.30;99.90;;;;;;5088110;28;20040;-64
2023/05/04 09:11:22;;;;;;;2.65;1.38;;;18.50;99.90;;;;;;5087471;28;20043;-65
2023/05/04 09:13:48;;;;;;;2.42;1.25;;;18.50;99.90;;;;;;5087997;28;20408;-65
2023/05/04 09:16:15;;;;;;;2.90;1.95;;;18.60;99.90;;;;;;5089655;28;20040;-64
2023/05/04 09:18:43;;;;;;;2.83;1.45;;;18.70;99.90;;;;;;5070749;28;20032;-64
2023/05/04 09:21:11;;;;;;;4.28;1.77;;;18.70;99.90;;;;;;5087921;28;20052;-65
2023/05/04 09:23:47;;;;;;;6.80;1.75;;;18.70;99.90;;;;;;5089140;28;20036;-63
2023/05/04 09:26:13;;;;;;;2.70;1.80;;;18.80;99.90;;;;;;5087738;28;20042;-65
2023/05/04 09:28:40;;;;;;;4.45;1.08;;;18.80;99.90;;;;;;5087901;28;20121;-64
2023/05/04 09:31:06;;;;;;;3.70;1.13;;;18.80;99.90;;;;;;5087748;28;20078;-64
2023/05/04 09:33:33;;;;;;;5.63;1.45;;;18.90;99.90;;;;;;5087497;28;20040;-66
2023/05/04 09:36:14;;;;;;;2.53;1.23;;;19.00;99.90;;;;;;5087784;28;20092;-66
2023/05/04 09:38:40;;;;;;;4.00;1.27;;;19.10;99.90;;;;;;5087410;28;20043;-65
2023/05/04 09:41:06;;;;;;;1.90;0.95;;;19.30;99.90;;;;;;5087590;28;20047;-63
2023/05/04 09:43:39;;;;;;;2.53;1.23;;;19.50;99.90;;;;;;5087914;28;20047;-65
2023/05/04 09:46:05;;;;;;;2.53;1.00;;;19.60;99.90;;;;;;5087269;28;20174;-65
2023/05/04 09:48:31;;;;;;;2.90;1.33;;;19.60;99.90;;;;;;5088102;28;20105;-63
2023/05/04 09:50:58;;;;;;;2.15;0.98;;;19.70;99.90;;;;;;5088143;28;20140;-65
2023/05/04 09:53:26;;;;;;;3.78;1.42;;;19.80;99.90;;;;;;5086958;28;20079;-65
2023/05/04 09:56:10;;;;;;;2.00;1.10;;;19.70;98.10;;;;;;5070799;28;20555;-64
2023/05/04 09:58:36;;;;;;;3.30;1.98;;;19.50;97.10;;;;;;5087530;28;20544;-63
2023/05/04 10:01:02;;;;;;;3.70;0.85;;;19.40;99.50;;;;;;5086865;28;20126;-64
2023/05/04 10:03:28;;;;;;;2.70;1.30;;;19.30;97.70;;;;;;5088744;28;20501;-65
2023/05/04 10:05:56;;;;;;;3.88;1.38;;;19.40;99.30;;;;;;5092791;28;20082;-63
2023/05/04 10:08:22;;;;;;;2.97;1.42;;;19.40;98.80;;;;;;5090982;28;20097;-65
2023/05/04 10:10:50;;;;;;;2.95;1.58;;;19.40;98.60;;;;;;5091873;28;20052;-62
2023/05/04 10:13:16;;;;;;;2.67;1.00;;;19.50;98.70;;;;;;5091427;28;20060;-63
2023/05/04 10:16:02;;;;;;;3.33;0.80;;;19.60;98.10;;;;;;5090931;28;20101;-64
2023/05/04 10:18:51;;;;;;;2.67;1.13;;;19.70;97.40;;;;;;5092123;28;20043;-64
2023/05/04 10:21:26;;;;;;;3.10;1.40;;;20.10;98.10;;;;;;5074260;28;20044;-64
2023/05/04 10:24:26;;;;;;;2.72;1.05;;;20.30;97.40;;;;;;5091673;28;20048;-65
2023/05/04 10:27:04;;;;;;;1.83;1.17;;;20.40;97.10;;;;;;5091494;28;20093;-64
2023/05/04 10:29:32;;;;;;;1.92;1.05;;;20.70;95.50;;;;;;5090775;28;20044;-63
2023/05/04 10:31:58;;;;;;;0.93;0.57;;;20.70;95.50;;;;;;5092525;28;20040;-63
2023/05/04 10:34:30;;;;;;;2.17;1.05;;;20.90;95.50;;;;;;5091154;28;20047;-64
2023/05/04 10:36:58;;;;;;;2.50;0.88;;;20.90;96.40;;;;;;5092010;28;20040;-64
2023/05/04 10:39:26;;;;;;;1.73;1.00;;;20.90;94.80;;;;;;5092543;28;20036;-65
2023/05/04 10:42:02;;;;;;;2.78;0.90;;;20.90;95.30;;;;;;5073743;28;20047;-65
2023/05/04 10:44:30;;;;;;;1.23;0.70;;;20.90;95.20;;;;;;5091091;28;20044;-63
2023/05/04 10:47:04;;;;;;;1.27;0.65;;;21.00;95.60;;;;;;5092574;28;20092;-64
2023/05/04 10:49:31;;;;;;;1.75;0.85;;;21.00;93.20;;;;;;5090458;28;20048;-64
2023/05/04 10:52:23;;;;;;;2.40;0.88;;;20.80;94.10;;;;;;5092117;28;20040;-62
2023/05/04 10:55:00;;;;;;;1.50;0.70;;;20.50;92.70;;;;;;5087315;28;20100;-64
2023/05/04 10:57:27;;;;;;;1.08;0.65;;;20.40;92.90;;;;;;5090279;28;20040;-62
2023/05/04 10:59:57;;;;;;;3.90;1.00;;;20.40;92.40;;;;;;5091850;28;20048;-63
2023/05/04 11:02:25;;;;;;;4.57;0.82;;;20.40;91.90;;;;;;5092273;28;20062;-64
2023/05/04 11:05:05;;;;;;;0.93;0.65;;;20.50;92.40;;;;;;5091435;28;20032;-64
2023/05/04 11:07:36;;;;;;;1.33;0.73;;;20.70;90.90;;;;;;5092019;28;20040;-63
2023/05/04 11:10:07;;;;;;;2.63;0.80;;;20.70;90.70;;;;;;5089863;28;20492;-64
2023/05/04 11:12:33;;;;;;;1.30;0.60;;;21.00;91.50;;;;;;5092058;28;20052;-63
2023/05/04 11:15:06;;;;;;;2.42;0.98;;;21.30;91.80;;;;;;5091507;28;20048;-65
2023/05/04 11:17:32;;;;;;;2.30;0.80;;;21.60;91.70;;;;;;5089404;28;20048;-66
2023/05/04 11:19:59;;;;;;;1.05;0.63;;;21.70;92.20;;;;;;5090508;28;20494;-62
2023/05/04 11:22:26;;;;;;;1.50;0.90;;;21.80;90.70;;;;;;5073741;28;20432;-65
2023/05/04 11:24:52;;;;;;;2.13;1.05;;;21.80;91.70;;;;;;5089616;28;20067;-64
2023/05/04 11:27:28;;;;;;;2.03;1.00;;;21.90;91.40;;;;;;5090188;28;20094;-65
2023/05/04 11:30:02;;;;;;;4.93;0.80;;;21.90;90.60;;;;;;5091511;28;20497;-63
2023/05/04 11:32:42;;;;;;;1.25;0.90;;;22.00;89.20;;;;;;5089537;28;20044;-64
2023/05/04 11:35:13;;;;;;;1.73;0.77;;;22.00;89.60;;;;;;5090116;28;20063;-63
2023/05/04 11:37:40;;;;;;;0.90;0.50;;;21.90;89.30;;;;;;5089715;28;20153;-64
2023/05/04 11:40:23;;;;;;;2.80;1.00;;;21.80;89.60;;;;;;5090255;28;20075;-64
2023/05/04 11:42:51;;;;;;;2.15;0.98;;;21.90;87.20;;;;;;5089832;28;20041;-64
2023/05/04 11:45:28;;;;;;;2.08;0.90;;;21.90;87.50;;;;;;5089505;28;20036;-65
2023/05/04 11:47:57;;;;;;;3.05;1.20;;;21.90;87.90;;;;;;5089806;28;20095;-64
2023/05/04 11:50:24;;;;;;;2.92;0.95;;;21.90;88.30;;;;;;5090266;28;20044;-65
2023/05/04 11:52:50;;;;;;;1.23;0.60;;;21.80;86.80;;;;;;5072346;28;20051;-62
2023/05/04 11:55:29;;;;;;;1.60;0.80;;;21.70;88.00;;;;;;5089630;28;20048;-63
2023/05/04 11:58:03;;;;;;;1.35;0.70;;;21.70;83.30;;;;;;5089685;28;20039;-63
2023/05/04 12:00:39;;;;;;;1.13;0.57;;;21.50;83.70;;;;;;5090371;28;20040;-62
2023/05/04 12:03:15;;;;;;;1.48;0.70;;;21.50;84.00;;;;;;5089755;28;20059;-64
2023/05/04 12:05:51;;;;;;;1.35;0.80;;;21.30;83.80;;;;;;5089183;28;20043;-64
2023/05/04 12:08:28;;;;;;;1.38;0.88;;;21.20;83.40;;;;;;5091000;28;20390;-63
2023/05/04 12:11:15;;;;;;;1.38;0.70;;;21.20;83.10;;;;;;5072483;28;20040;-62
2023/05/04 12:13:43;;;;;;;0.85;0.60;;;21.20;81.60;;;;;;5089685;28;20537;-64
2023/05/04 12:16:19;;;;;;;1.98;0.70;;;21.40;84.60;;;;;;5072910;28;20040;-64
2023/05/04 12:18:46;;;;;;;2.55;0.50;;;21.50;85.40;;;;;;5090481;28;20040;-64
2023/05/04 12:21:12;;;;;;;1.23;0.90;;;21.60;85.80;;;;;;5090218;28;20036;-65
2023/05/04 12:23:39;;;;;;;1.13;0.68;;;21.80;83.90;;;;;;5090440;28;20059;-63
2023/05/04 12:26:05;;;;;;;1.33;0.60;;;21.70;84.30;;;;;;5089323;28;20035;-63
2023/05/04 12:28:34;;;;;;;2.50;1.00;;;21.60;80.90;;;;;;5089002;28;20040;-62
2023/05/04 12:31:00;;;;;;;1.42;0.90;;;21.40;80.10;;;;;;5090192;28;20582;-64
2023/05/04 12:33:26;;;;;;;1.42;0.77;;;21.20;81.10;;;;;;5089177;28;20036;-63
2023/05/04 12:35:52;;;;;;;2.85;0.82;;;21.20;80.10;;;;;;5089756;28;20505;-62
2023/05/04 12:38:19;;;;;;;3.47;1.00;;;21.20;79.60;;;;;;5090320;28;20044;-62
2023/05/04 12:40:45;;;;;;;1.63;0.77;;;21.20;79.70;;;;;;5089811;28;20044;-64
2023/05/04 12:43:11;;;;;;;1.50;1.00;;;21.20;80.60;;;;;;5089984;28;20050;-65
2023/05/04 12:45:37;;;;;;;0.55;0.47;;;21.30;81.70;;;;;;5088517;28;20036;-64
2023/05/04 12:48:02;;;;;;;4.45;1.02;;;21.30;82.00;;;;;;5071522;28;20309;-65
2023/05/04 12:50:28;;;;;;;4.60;0.85;;;21.30;78.70;;;;;;5071757;28;20048;-64
2023/05/04 12:52:54;;;;;;;2.08;0.70;;;21.30;79.30;;;;;;5088553;28;20082;-64
2023/05/04 12:55:20;;;;;;;2.05;0.93;;;21.30;80.40;;;;;;5088057;28;20067;-63